createdAt,value
2022-08-14T00:01:25.736Z,71.00
2022-08-14T00:03:31.988Z,71.11
2022-08-14T00:05:33.711Z,71.02
2022-08-14T00:07:41.896Z,71.20
2022-08-14T00:09:55.655Z,71.14
2022-08-14T00:12:05.630Z,71.06
2022-08-14T00:14:28.131Z,69.48
2022-08-14T00:16:41.220Z,70.02
2022-08-14T00:19:06.261Z,70.83
2022-08-14T00:21:11.395Z,71.40
2022-08-14T00:23:16.751Z,71.60
2022-08-14T00:25:19.970Z,71.58
2022-08-14T00:27:22.817Z,71.37
2022-08-14T00:29:27.085Z,70.91
2022-08-14T00:31:43.966Z,70.97
2022-08-14T00:33:51.897Z,71.26
2022-08-14T00:36:35.223Z,71.33
2022-08-14T00:38:18.399Z,71.20
2022-08-14T00:40:33.313Z,71.06
2022-08-14T00:42:55.179Z,70.96
2022-08-14T00:44:58.403Z,71.16
2022-08-14T00:47:10.860Z,72.19
2022-08-14T00:49:14.782Z,73.55
2022-08-14T00:51:17.223Z,74.32
2022-08-14T00:53:19.062Z,74.42
2022-08-14T00:55:22.597Z,74.69
2022-08-14T00:57:30.469Z,74.88
2022-08-14T00:59:33.406Z,75.04
2022-08-14T01:01:38.618Z,74.64
2022-08-14T01:03:43.318Z,74.62
2022-08-14T01:05:51.802Z,74.23
2022-08-14T01:07:57.903Z,73.58
2022-08-14T01:10:05.300Z,73.50
2022-08-14T01:12:07.960Z,73.17
2022-08-14T01:14:25.607Z,72.53
2022-08-14T01:16:31.617Z,72.54
2022-08-14T01:19:01.011Z,72.10
2022-08-14T01:21:06.464Z,71.79
2022-08-14T01:23:15.719Z,71.73
2022-08-14T01:25:19.110Z,71.63
2022-08-14T01:27:24.507Z,71.78
2022-08-14T01:29:58.212Z,72.08
2022-08-14T01:31:50.227Z,72.48
2022-08-14T01:34:00.218Z,72.42
2022-08-14T01:36:22.924Z,73.07
2022-08-14T01:38:25.320Z,73.87
2022-08-14T01:40:33.075Z,74.16
2022-08-14T01:42:36.073Z,74.31
2022-08-14T01:44:41.292Z,74.65
2022-08-14T01:46:45.196Z,74.83
2022-08-14T01:48:57.405Z,75.32
2022-08-14T01:51:03.090Z,75.73
2022-08-14T01:53:05.176Z,75.83
2022-08-14T01:55:17.920Z,76.14
2022-08-14T01:57:19.863Z,76.15
2022-08-14T01:59:37.571Z,76.07
2022-08-14T02:01:42.000Z,75.98
2022-08-14T02:03:58.113Z,76.31
2022-08-14T02:06:04.174Z,77.71
2022-08-14T02:08:35.089Z,79.79
2022-08-14T02:10:47.154Z,80.39
2022-08-14T02:12:57.016Z,80.60
2022-08-14T02:15:01.545Z,79.40
2022-08-14T02:17:07.362Z,79.45
2022-08-14T02:19:15.270Z,79.57
2022-08-14T02:21:19.532Z,80.32
2022-08-14T02:23:31.957Z,80.54
2022-08-14T02:25:34.630Z,79.97
2022-08-14T02:28:26.016Z,79.39
2022-08-14T02:30:02.019Z,79.45
2022-08-14T02:32:04.672Z,79.67
2022-08-14T02:34:22.003Z,78.34
2022-08-14T02:37:04.318Z,78.50
2022-08-14T02:38:50.164Z,78.24
2022-08-14T02:40:51.941Z,80.00
2022-08-14T02:42:55.219Z,80.99
2022-08-14T02:44:59.386Z,81.27
2022-08-14T02:47:03.076Z,80.66
2022-08-14T02:49:09.149Z,80.35
2022-08-14T02:51:14.543Z,80.75
2022-08-14T02:53:16.258Z,81.44
2022-08-14T02:55:20.608Z,82.41
2022-08-14T02:57:39.686Z,81.88
2022-08-14T02:59:43.273Z,80.90
2022-08-14T03:01:50.413Z,79.66
2022-08-14T03:03:56.713Z,78.87
2022-08-14T03:05:59.019Z,78.41
2022-08-14T03:08:11.217Z,77.86
2022-08-14T03:10:26.629Z,77.15
2022-08-14T03:12:34.342Z,76.79
2022-08-14T03:14:39.870Z,76.66
2022-08-14T03:16:49.231Z,76.62
2022-08-14T03:19:00.440Z,76.57
2022-08-14T03:21:05.985Z,76.08
2022-08-14T03:23:07.902Z,75.99
2022-08-14T03:25:12.386Z,77.66
2022-08-14T03:27:15.730Z,78.38
2022-08-14T03:29:20.757Z,79.52
2022-08-14T03:31:28.124Z,80.33
2022-08-14T03:33:37.839Z,81.30
2022-08-14T03:36:05.100Z,82.74
2022-08-14T03:39:11.841Z,82.53
2022-08-14T03:40:40.241Z,82.90
2022-08-14T03:42:42.001Z,84.03
2022-08-14T03:45:27.958Z,83.80
2022-08-14T03:47:08.222Z,83.61
2022-08-14T03:49:12.733Z,82.71
2022-08-14T03:51:16.163Z,80.72
2022-08-14T03:53:20.274Z,80.28
2022-08-14T03:55:22.205Z,79.56
2022-08-14T03:57:24.502Z,80.21
2022-08-14T03:59:28.548Z,80.80
2022-08-14T04:01:39.161Z,81.17
2022-08-14T04:03:43.644Z,81.26
2022-08-14T04:05:48.821Z,81.96
2022-08-14T04:08:08.308Z,81.75
2022-08-14T04:10:14.046Z,80.78
2022-08-14T04:12:26.094Z,79.75
2022-08-14T04:14:29.435Z,78.21
2022-08-14T04:16:32.089Z,77.14
2022-08-14T04:18:35.082Z,76.92
2022-08-14T04:20:40.805Z,76.08
2022-08-14T04:22:56.812Z,75.86
2022-08-14T04:25:04.492Z,76.10
2022-08-14T04:27:11.629Z,75.53
2022-08-14T04:29:15.502Z,75.06
2022-08-14T04:32:58.903Z,74.97
2022-08-14T04:33:42.338Z,75.13
2022-08-14T04:35:56.886Z,74.41
2022-08-14T04:38:36.813Z,73.99
2022-08-14T04:40:57.759Z,73.74
2022-08-14T04:43:18.993Z,73.75
2022-08-14T04:45:24.464Z,73.29
2022-08-14T04:47:46.327Z,72.72
2022-08-14T04:49:57.418Z,72.26
2022-08-14T04:52:02.996Z,72.34
2022-08-14T04:54:17.303Z,72.30
2022-08-14T04:56:31.100Z,72.05
2022-08-14T04:58:36.305Z,71.78
2022-08-14T05:00:40.190Z,72.08
2022-08-14T05:02:43.821Z,72.10
2022-08-14T05:04:57.079Z,71.42
2022-08-14T05:06:59.453Z,71.15
2022-08-14T05:09:01.417Z,71.09
2022-08-14T05:11:05.118Z,70.52
2022-08-14T05:13:13.123Z,70.72
2022-08-14T05:15:19.530Z,70.60
2022-08-14T05:17:28.631Z,70.55
2022-08-14T05:19:33.929Z,70.46
2022-08-14T05:21:59.922Z,70.44
2022-08-14T05:24:02.636Z,70.54
2022-08-14T05:26:13.418Z,70.69
2022-08-14T05:28:20.509Z,70.66
2022-08-14T05:30:22.806Z,70.79
2022-08-14T05:32:26.902Z,70.43
2022-08-14T05:34:32.082Z,70.53
2022-08-14T05:36:34.891Z,70.37
2022-08-14T05:38:43.868Z,70.84
2022-08-14T05:40:47.283Z,70.77
2022-08-14T05:42:52.564Z,70.11
2022-08-14T05:44:55.919Z,70.12
2022-08-14T05:46:59.376Z,70.24
2022-08-14T05:49:02.914Z,69.71
2022-08-14T05:51:05.592Z,69.67
2022-08-14T05:53:09.633Z,69.19
2022-08-14T05:55:11.782Z,69.44
2022-08-14T05:57:14.456Z,69.04
2022-08-14T05:59:17.291Z,69.04
2022-08-14T06:01:21.331Z,68.97
2022-08-14T06:03:25.411Z,69.33
2022-08-14T06:05:29.270Z,69.26
2022-08-14T06:07:31.273Z,68.74
2022-08-14T06:09:35.419Z,68.72
2022-08-14T06:11:42.311Z,68.32
2022-08-14T06:13:46.076Z,68.62
2022-08-14T06:15:51.901Z,68.97
2022-08-14T06:17:59.126Z,68.95
2022-08-14T06:20:01.927Z,69.16
2022-08-14T06:22:06.444Z,68.75
2022-08-14T06:24:18.639Z,68.74
2022-08-14T06:26:22.329Z,68.87
2022-08-14T06:28:27.468Z,68.82
2022-08-14T06:30:46.206Z,69.19
2022-08-14T06:32:53.041Z,69.78
2022-08-14T06:35:11.554Z,69.63
2022-08-14T06:37:18.807Z,70.20
2022-08-14T06:39:36.529Z,69.99
2022-08-14T06:41:59.360Z,69.73
2022-08-14T06:44:01.613Z,69.41
2022-08-14T06:46:04.312Z,69.21
2022-08-14T06:48:17.149Z,69.07
2022-08-14T06:50:21.739Z,69.56
2022-08-14T06:52:30.134Z,71.19
2022-08-14T06:54:32.195Z,71.41
2022-08-14T06:56:34.093Z,70.32
2022-08-14T06:58:37.046Z,70.10
2022-08-14T07:00:39.304Z,69.01
2022-08-14T07:03:00.230Z,70.28
2022-08-14T07:05:23.356Z,71.81
2022-08-14T07:07:35.174Z,72.24
2022-08-14T07:09:43.700Z,70.58
2022-08-14T07:11:52.206Z,70.32
2022-08-14T07:13:54.574Z,69.65
2022-08-14T07:15:58.416Z,70.58
2022-08-14T07:18:00.633Z,70.24
2022-08-14T07:20:03.340Z,71.37
2022-08-14T07:22:05.524Z,71.67
2022-08-14T07:24:26.181Z,72.24
2022-08-14T07:26:33.361Z,72.20
2022-08-14T07:28:43.607Z,72.42
2022-08-14T07:30:50.762Z,72.43
2022-08-14T07:32:53.591Z,72.75
2022-08-14T07:34:57.211Z,73.22
2022-08-14T07:37:01.454Z,73.09
2022-08-14T07:39:13.195Z,72.58
2022-08-14T07:41:16.574Z,73.01
2022-08-14T07:43:18.858Z,72.28
2022-08-14T07:45:23.464Z,72.04
2022-08-14T07:47:25.466Z,71.92
2022-08-14T07:49:27.645Z,71.36
2022-08-14T07:51:36.676Z,71.26
2022-08-14T07:53:40.957Z,69.67
2022-08-14T07:55:43.346Z,68.84
2022-08-14T07:57:47.582Z,67.20
2022-08-14T07:59:54.159Z,65.73
2022-08-14T08:01:58.547Z,64.84
2022-08-14T08:04:03.764Z,65.50
2022-08-14T08:06:18.815Z,64.46
2022-08-14T08:08:27.330Z,63.69
2022-08-14T08:11:02.525Z,63.30
2022-08-14T08:12:55.547Z,63.52
2022-08-14T08:15:03.134Z,64.96
2022-08-14T08:17:10.558Z,64.91
2022-08-14T08:19:13.988Z,64.61
2022-08-14T08:21:17.943Z,64.38
2022-08-14T08:23:21.802Z,63.51
2022-08-14T08:25:39.650Z,63.49
2022-08-14T08:27:44.879Z,65.44
2022-08-14T08:29:50.661Z,66.61
2022-08-14T08:31:53.228Z,68.09
2022-08-14T08:33:54.927Z,68.37
2022-08-14T08:36:03.556Z,68.62
2022-08-14T08:39:15.583Z,68.89
2022-08-14T08:40:36.420Z,67.98
2022-08-14T08:42:52.117Z,66.67
2022-08-14T08:44:57.110Z,65.93
2022-08-14T08:47:03.481Z,67.10
2022-08-14T08:49:06.176Z,67.35
2022-08-14T08:51:09.809Z,68.26
2022-08-14T08:53:13.606Z,69.09
2022-08-14T08:55:16.256Z,68.26
2022-08-14T08:57:18.478Z,65.95
2022-08-14T08:59:34.305Z,66.03
2022-08-14T09:01:36.335Z,65.14
2022-08-14T09:03:43.957Z,64.84
2022-08-14T09:05:51.342Z,64.84
2022-08-14T09:08:30.684Z,66.32
2022-08-14T09:10:32.642Z,66.04
2022-08-14T09:12:35.359Z,66.21
2022-08-14T09:14:37.234Z,66.74
2022-08-14T09:16:47.778Z,66.13
2022-08-14T09:18:53.202Z,64.66
2022-08-14T09:21:02.202Z,65.04
2022-08-14T09:23:05.210Z,65.41
2022-08-14T09:25:09.510Z,64.91
2022-08-14T09:27:16.588Z,63.67
2022-08-14T09:29:24.663Z,63.52
2022-08-14T09:31:43.212Z,63.16
2022-08-14T09:34:09.268Z,62.60
2022-08-14T09:36:51.985Z,61.77
2022-08-14T09:39:22.930Z,63.28
2022-08-14T09:42:21.717Z,63.86
2022-08-14T09:44:21.030Z,63.93
2022-08-14T09:46:27.786Z,63.59
2022-08-14T09:48:30.802Z,64.46
2022-08-14T09:50:45.877Z,65.31
2022-08-14T09:53:04.533Z,66.95
2022-08-14T09:55:18.680Z,66.49
2022-08-14T09:57:32.556Z,66.36
2022-08-14T09:59:45.676Z,65.69
2022-08-14T10:01:52.719Z,65.97
2022-08-14T10:03:59.624Z,65.64
2022-08-14T10:06:09.113Z,65.80
2022-08-14T10:08:25.239Z,66.16
2022-08-14T10:10:38.298Z,64.24
2022-08-14T10:12:53.168Z,63.52
2022-08-14T10:14:59.992Z,63.79
2022-08-14T10:17:06.085Z,62.87
2022-08-14T10:19:11.142Z,61.85
2022-08-14T10:21:18.222Z,61.38
2022-08-14T10:23:23.439Z,61.25
2022-08-14T10:25:27.027Z,60.95
2022-08-14T10:27:29.595Z,60.63
2022-08-14T10:29:33.719Z,60.69
2022-08-14T10:31:45.446Z,59.96
2022-08-14T10:34:04.652Z,60.28
2022-08-14T10:36:34.493Z,60.52
2022-08-14T10:38:37.398Z,60.24
2022-08-14T10:40:44.586Z,60.54
2022-08-14T10:42:54.243Z,60.24
2022-08-14T10:44:56.686Z,60.43
2022-08-14T10:47:41.559Z,59.79
2022-08-14T10:49:26.778Z,60.33
2022-08-14T10:51:34.237Z,60.87
2022-08-14T10:53:40.179Z,60.49
2022-08-14T10:55:45.015Z,60.29
2022-08-14T10:57:50.621Z,59.82
2022-08-14T10:59:58.415Z,59.56
2022-08-14T11:02:01.927Z,59.45
2022-08-14T11:04:05.298Z,58.35
2022-08-14T11:06:24.732Z,57.56
2022-08-14T11:08:34.151Z,57.05
2022-08-14T11:10:48.325Z,56.96
2022-08-14T11:12:57.841Z,56.21
2022-08-14T11:15:02.713Z,56.10
2022-08-14T11:17:05.689Z,55.34
2022-08-14T11:19:12.441Z,55.65
2022-08-14T11:21:20.032Z,56.21
2022-08-14T11:23:38.649Z,55.73
2022-08-14T11:25:52.950Z,55.29
2022-08-14T11:27:57.144Z,54.68
2022-08-14T11:30:50.951Z,55.04
2022-08-14T11:32:31.148Z,54.73
2022-08-14T11:34:38.300Z,53.67
2022-08-14T11:37:02.513Z,53.41
2022-08-14T11:39:04.474Z,52.81
2022-08-14T11:41:14.285Z,53.34
2022-08-14T11:43:22.755Z,53.44
2022-08-14T11:45:36.950Z,52.15
2022-08-14T11:47:44.072Z,52.59
2022-08-14T11:50:01.300Z,52.37
2022-08-14T11:52:04.981Z,52.23
2022-08-14T11:54:08.201Z,53.08
2022-08-14T11:56:11.131Z,52.85
2022-08-14T11:58:15.753Z,53.09
2022-08-14T12:00:39.577Z,53.84
2022-08-14T12:03:02.587Z,54.33
2022-08-14T12:05:09.179Z,54.81
2022-08-14T12:07:12.108Z,55.08
2022-08-14T12:09:15.357Z,55.26
2022-08-14T12:11:17.245Z,54.92
2022-08-14T12:13:23.589Z,55.06
2022-08-14T12:15:31.542Z,55.29
2022-08-14T12:17:47.716Z,55.72
2022-08-14T12:19:58.963Z,55.49
2022-08-14T12:22:01.099Z,56.04
2022-08-14T12:24:08.546Z,55.95
2022-08-14T12:26:39.162Z,56.15
2022-08-14T12:28:59.951Z,56.13
2022-08-14T12:31:13.361Z,56.47
2022-08-14T12:33:30.501Z,56.22
2022-08-14T12:35:43.469Z,56.10
2022-08-14T12:37:51.722Z,55.92
2022-08-14T12:39:54.856Z,56.09
2022-08-14T12:42:06.552Z,56.46
2022-08-14T12:44:08.709Z,56.60
2022-08-14T12:46:22.327Z,56.60
2022-08-14T12:48:32.572Z,57.02
2022-08-14T12:50:39.345Z,57.12
2022-08-14T12:53:11.244Z,57.10
2022-08-14T12:55:11.443Z,57.50
2022-08-14T12:57:20.219Z,58.04
2022-08-14T12:59:30.460Z,58.24
2022-08-14T13:01:59.013Z,58.46
2022-08-14T13:04:10.192Z,58.58
2022-08-14T13:06:12.252Z,58.35
2022-08-14T13:08:33.573Z,58.32
2022-08-14T13:10:46.983Z,59.11
2022-08-14T13:13:15.170Z,59.03
2022-08-14T13:15:19.533Z,58.92
2022-08-14T13:17:22.112Z,59.08
2022-08-14T13:19:26.813Z,59.18
2022-08-14T13:21:58.839Z,59.47
2022-08-14T13:23:55.070Z,59.57
2022-08-14T13:26:00.428Z,59.87
2022-08-14T13:28:03.232Z,59.96
2022-08-14T13:30:10.430Z,60.26
2022-08-14T13:32:13.676Z,59.90
2022-08-14T13:34:17.010Z,59.89
2022-08-14T13:36:23.605Z,59.86
2022-08-14T13:38:27.981Z,59.79
2022-08-14T13:40:30.807Z,58.99
2022-08-14T13:42:32.762Z,59.26
2022-08-14T13:44:36.233Z,59.16
2022-08-14T13:46:44.569Z,59.31
2022-08-14T13:48:54.905Z,59.47
2022-08-14T13:50:58.893Z,59.07
2022-08-14T13:53:04.064Z,59.00
2022-08-14T13:55:07.007Z,58.56
2022-08-14T13:57:12.625Z,58.78
2022-08-14T13:59:20.138Z,58.84
2022-08-14T14:01:27.433Z,58.61
2022-08-14T14:03:32.024Z,59.16
2022-08-14T14:05:52.740Z,58.95
2022-08-14T14:07:56.505Z,59.52
2022-08-14T14:10:06.743Z,60.16
2022-08-14T14:12:37.241Z,60.35
2022-08-14T14:14:45.143Z,61.04
2022-08-14T14:16:53.461Z,61.09
2022-08-14T14:19:06.053Z,60.60
2022-08-14T14:21:09.225Z,60.00
2022-08-14T14:23:17.710Z,60.43
2022-08-14T14:25:22.268Z,60.74
2022-08-14T14:27:41.192Z,61.12
2022-08-14T14:29:47.614Z,60.97
2022-08-14T14:31:52.867Z,60.57
2022-08-14T14:34:29.171Z,60.13
2022-08-14T14:36:34.388Z,60.01
2022-08-14T14:38:41.302Z,60.20
2022-08-14T14:40:52.897Z,60.85
2022-08-14T14:42:57.849Z,60.97
2022-08-14T14:45:07.574Z,61.22
2022-08-14T14:47:13.605Z,60.93
2022-08-14T14:49:15.970Z,60.84
2022-08-14T14:51:19.431Z,60.34
2022-08-14T14:53:23.696Z,60.45
2022-08-14T14:55:27.745Z,59.77
2022-08-14T14:57:51.947Z,59.30
2022-08-14T14:59:57.314Z,59.50
2022-08-14T15:02:09.447Z,59.34
2022-08-14T15:04:19.773Z,58.48
2022-08-14T15:06:22.840Z,58.02
2022-08-14T15:08:57.011Z,56.81
2022-08-14T15:10:54.322Z,57.22
2022-08-14T15:12:57.858Z,57.21
2022-08-14T15:15:08.441Z,56.93
2022-08-14T15:17:11.419Z,57.49
2022-08-14T15:19:13.457Z,57.78
2022-08-14T15:21:15.534Z,58.12
2022-08-14T15:23:17.970Z,58.71
2022-08-14T15:25:24.827Z,59.29
2022-08-14T15:27:26.944Z,59.83
2022-08-14T15:29:29.425Z,59.26
2022-08-14T15:31:36.296Z,59.81
2022-08-14T15:34:33.516Z,59.93
2022-08-14T15:36:26.000Z,60.59
2022-08-14T15:38:33.082Z,60.35
2022-08-14T15:40:41.757Z,60.67
2022-08-14T15:42:43.535Z,60.58
2022-08-14T15:44:56.567Z,60.89
2022-08-14T15:47:00.097Z,60.15
2022-08-14T15:49:02.253Z,59.72
2022-08-14T15:51:05.038Z,58.94
2022-08-14T15:53:09.162Z,58.60
2022-08-14T15:55:16.164Z,58.54
2022-08-14T15:57:19.957Z,58.46
2022-08-14T15:59:22.530Z,58.40
2022-08-14T16:01:43.662Z,58.67
2022-08-14T16:03:48.638Z,58.54
2022-08-14T16:05:51.186Z,58.71
2022-08-14T16:07:54.027Z,59.18
2022-08-14T16:10:27.754Z,59.37
2022-08-14T16:12:19.256Z,59.84
2022-08-14T16:14:41.504Z,60.15
2022-08-14T16:16:50.245Z,60.56
2022-08-14T16:18:59.079Z,60.22
2022-08-14T16:21:02.528Z,60.63
2022-08-14T16:23:10.738Z,60.77
2022-08-14T16:25:18.250Z,61.03
2022-08-14T16:27:23.507Z,61.31
2022-08-14T16:32:33.202Z,60.93
2022-08-14T16:34:46.302Z,60.70
2022-08-14T16:36:51.030Z,60.74
2022-08-14T16:38:56.006Z,60.71
2022-08-14T16:40:24.433Z,61.19
2022-08-14T16:41:21.869Z,60.10
2022-08-14T16:43:26.114Z,60.10
2022-08-14T16:45:33.643Z,60.28
2022-08-14T16:47:36.322Z,60.46
2022-08-14T16:50:03.852Z,60.11
2022-08-14T16:52:10.140Z,59.11
2022-08-14T16:54:35.098Z,59.77
2022-08-14T16:56:46.603Z,61.39
2022-08-14T16:58:51.695Z,62.42
2022-08-14T17:00:54.844Z,63.67
2022-08-14T17:03:01.620Z,64.48
2022-08-14T17:05:25.162Z,66.01
2022-08-14T17:07:27.537Z,68.39
2022-08-14T17:09:43.447Z,69.03
2022-08-14T17:12:07.385Z,68.57
2022-08-14T17:14:10.949Z,68.60
2022-08-14T17:16:24.769Z,68.96
2022-08-14T17:19:00.596Z,69.00
2022-08-14T17:21:31.319Z,69.11
2022-08-14T17:23:34.147Z,68.62
2022-08-14T17:25:37.379Z,68.50
2022-08-14T17:27:39.605Z,67.84
2022-08-14T17:29:44.462Z,67.31
2022-08-14T17:32:21.979Z,66.83
2022-08-14T17:34:49.645Z,66.52
2022-08-14T17:36:54.542Z,66.10
2022-08-14T17:39:11.908Z,66.49
2022-08-14T17:41:22.150Z,67.57
2022-08-14T17:43:41.230Z,68.31
2022-08-14T17:45:46.927Z,69.27
2022-08-14T17:47:49.566Z,69.81
2022-08-14T17:49:54.026Z,70.10
2022-08-14T17:52:07.537Z,69.94
2022-08-14T17:54:22.616Z,70.84
2022-08-14T17:56:38.753Z,71.79
2022-08-14T17:58:41.961Z,72.21
2022-08-14T18:00:44.602Z,72.22
2022-08-14T18:02:50.626Z,71.95
2022-08-14T18:05:03.084Z,72.37
2022-08-14T18:07:50.641Z,72.21
2022-08-14T18:09:33.422Z,72.25
2022-08-14T18:11:45.584Z,72.30
2022-08-14T18:13:52.648Z,72.14
2022-08-14T18:15:58.070Z,71.77
2022-08-14T18:18:00.949Z,71.29
2022-08-14T18:21:23.132Z,71.67
2022-08-14T18:22:32.296Z,70.99
2022-08-14T18:24:41.286Z,70.82
2022-08-14T18:26:45.125Z,70.51
2022-08-14T18:28:51.655Z,69.93
2022-08-14T18:31:23.125Z,69.99
2022-08-14T18:33:25.461Z,70.19
2022-08-14T18:35:59.922Z,69.77
2022-08-14T18:38:26.295Z,69.74
2022-08-14T18:40:44.261Z,69.29
2022-08-14T18:42:51.710Z,68.84
2022-08-14T18:44:53.454Z,68.18
2022-08-14T18:47:15.934Z,67.98
2022-08-14T18:49:19.735Z,67.38
2022-08-14T18:51:45.628Z,67.49
2022-08-14T18:53:59.567Z,67.15
2022-08-14T18:56:10.089Z,66.96
2022-08-14T18:58:25.204Z,66.79
2022-08-14T19:00:43.343Z,66.49
2022-08-14T19:02:53.274Z,66.51
2022-08-14T19:04:57.611Z,66.04
2022-08-14T19:07:16.272Z,65.65
2022-08-14T19:09:56.411Z,65.87
2022-08-14T19:11:59.852Z,65.61
2022-08-14T19:14:04.876Z,65.62
2022-08-14T19:16:18.645Z,65.57
2022-08-14T19:18:27.863Z,65.17
2022-08-14T19:20:53.803Z,65.37
2022-08-14T19:22:55.947Z,65.13
2022-08-14T19:25:04.817Z,65.24
2022-08-14T19:27:24.226Z,65.31
2022-08-14T19:29:38.192Z,65.09
2022-08-14T19:31:46.559Z,65.11
2022-08-14T19:34:06.782Z,64.84
2022-08-14T19:36:29.234Z,64.82
2022-08-14T19:38:45.023Z,65.19
2022-08-14T19:40:47.147Z,65.51
2022-08-14T19:42:51.856Z,65.39
2022-08-14T19:45:00.513Z,65.54
2022-08-14T19:47:06.126Z,65.51
2022-08-14T19:49:14.238Z,65.37
2022-08-14T19:51:25.563Z,65.62
2022-08-14T19:53:34.837Z,66.11
2022-08-14T19:55:45.586Z,66.07
2022-08-14T19:57:52.787Z,66.07
2022-08-14T20:00:29.166Z,66.41
2022-08-14T20:02:31.751Z,65.98
2022-08-14T20:04:47.595Z,66.16
2022-08-14T20:07:04.138Z,65.93
2022-08-14T20:11:04.857Z,65.96
2022-08-14T20:12:00.920Z,65.94
2022-08-14T20:14:09.412Z,66.00
2022-08-14T20:16:12.850Z,65.59
2022-08-14T20:20:55.076Z,65.98
2022-08-14T20:22:56.824Z,65.91
2022-08-14T20:25:18.371Z,65.64
2022-08-14T20:27:33.640Z,65.99
2022-08-14T20:29:38.849Z,65.66
2022-08-14T20:31:42.498Z,65.72
2022-08-14T20:34:04.122Z,65.79
2022-08-14T20:36:26.713Z,65.82
2022-08-14T20:38:33.612Z,65.52
2022-08-14T20:40:50.590Z,65.69
2022-08-14T20:43:13.853Z,66.27
2022-08-14T20:45:19.718Z,66.84
2022-08-14T20:47:22.639Z,67.07
2022-08-14T20:49:31.090Z,67.21
2022-08-14T20:51:54.573Z,67.11
2022-08-14T20:54:03.697Z,66.76
2022-08-14T20:56:30.003Z,66.38
2022-08-14T20:58:41.795Z,65.80
2022-08-14T21:00:52.642Z,66.02
2022-08-14T21:02:55.560Z,66.33
2022-08-14T21:05:16.385Z,66.24
2022-08-14T21:07:25.145Z,65.74
2022-08-14T21:10:06.146Z,66.14
2022-08-14T21:12:33.537Z,66.26
2022-08-14T21:14:35.658Z,66.08
2022-08-14T21:16:58.022Z,66.08
2022-08-14T21:19:01.806Z,65.66
2022-08-14T21:21:08.168Z,65.75
2022-08-14T21:23:12.441Z,65.86
2022-08-14T21:25:14.197Z,65.78
2022-08-14T21:27:23.523Z,65.58
2022-08-14T21:29:25.862Z,65.62
2022-08-14T21:31:30.082Z,65.56
2022-08-14T21:33:34.661Z,65.63
2022-08-14T21:35:44.568Z,65.13
2022-08-14T21:37:47.946Z,65.37
2022-08-14T21:39:57.053Z,65.23
2022-08-14T21:42:00.456Z,65.21
2022-08-14T21:44:17.401Z,65.28
2022-08-14T21:46:22.095Z,65.18
2022-08-14T21:48:30.344Z,65.28
2022-08-14T21:50:59.882Z,64.99
2022-08-14T21:53:00.915Z,64.93
2022-08-14T21:55:10.445Z,64.87
2022-08-14T21:57:16.046Z,64.83
2022-08-14T21:59:24.493Z,64.95
2022-08-14T22:01:59.700Z,65.15
2022-08-14T22:03:58.941Z,65.14
2022-08-14T22:06:01.058Z,65.22
2022-08-14T22:08:06.826Z,65.63
2022-08-14T22:10:22.867Z,65.71
2022-08-14T22:12:57.643Z,65.71
2022-08-14T22:14:48.223Z,65.71
2022-08-14T22:17:01.663Z,65.81
2022-08-14T22:19:14.226Z,65.91
2022-08-14T22:21:21.488Z,66.14
2022-08-14T22:23:24.060Z,66.22
2022-08-14T22:25:32.957Z,66.45
2022-08-14T22:27:55.452Z,66.76
2022-08-14T22:29:58.766Z,66.62
2022-08-14T22:32:00.998Z,66.91
2022-08-14T22:34:11.657Z,66.53
2022-08-14T22:36:42.234Z,66.69
2022-08-14T22:38:49.815Z,66.45
2022-08-14T22:41:25.408Z,66.89
2022-08-14T22:43:15.877Z,66.99
2022-08-14T22:45:17.883Z,67.04
2022-08-14T22:47:25.165Z,66.99
2022-08-14T22:50:32.806Z,66.91
2022-08-14T22:51:57.311Z,67.01
2022-08-14T22:54:00.946Z,67.49
2022-08-14T22:56:06.323Z,67.11
2022-08-14T22:58:31.789Z,67.04
2022-08-14T23:00:36.664Z,67.02
2022-08-14T23:02:39.041Z,67.26
2022-08-14T23:04:54.009Z,66.87
2022-08-14T23:07:02.092Z,66.62
2022-08-14T23:09:35.893Z,66.76
2022-08-14T23:11:29.219Z,67.41
2022-08-14T23:13:32.803Z,67.43
2022-08-14T23:15:35.710Z,67.28
2022-08-14T23:17:40.586Z,67.59
2022-08-14T23:19:46.795Z,67.32
2022-08-14T23:21:51.029Z,67.71
2022-08-14T23:23:55.544Z,67.36
2022-08-14T23:26:47.073Z,67.57
2022-08-14T23:28:33.345Z,67.65
2022-08-14T23:30:49.134Z,68.15
2022-08-14T23:32:53.397Z,67.92
2022-08-14T23:34:55.788Z,68.34
2022-08-14T23:36:58.579Z,67.79
2022-08-14T23:39:10.391Z,67.69
2022-08-14T23:41:17.638Z,67.25
2022-08-14T23:43:20.551Z,67.13
2022-08-14T23:45:36.753Z,67.10
2022-08-14T23:47:51.945Z,67.46
2022-08-14T23:50:00.655Z,67.89
2022-08-14T23:53:07.364Z,67.73
2022-08-14T23:54:48.137Z,67.82
2022-08-14T23:56:48.752Z,68.09
2022-08-14T23:59:02.174Z,68.65
